Airfield :
LOGIN :

Register | Disclaimer

   EN    FR    IT 

 










Legend :    VFR   Marginal VFR   IFR   Intensive IFR   Very Intensive IFR
Visi :
Ceiling :
>= 8 km
>= 3000ft
5 to 8 km
1000 to 3000 ft
1500m to 5 km
500 to 1000 ft
800 to 1500m
200 to 500 ft
< 800m
< 200 ft
Symbols :   Thunderstorms  Fog  Heavy snow  Heavy precipitations  Wind > 20 kt
SIGMETs :     Misc.  Thunderstorms  Icing  Turbulence  Mountain Waves  Volcanic Ashes







- Airport Elevation : 506 ft
- IATA code : GOT


ESGG - Landvetter

CURRENT METAR :
  • 191250Z 21008KT 9999 SCT025 BKN031 15/12 Q1015

EXPIRED METARs :
  • 191220Z 24005KT 9999 BKN023 14/12 Q1016
  • 191150Z 25007KT 5000 -SHRA FEW006 SCT019 OVC026 14/11 Q1016
  • 191120Z 27007KT 240V330 9999 FEW025 BKN040 16/10 Q1016
  • 191050Z 24009KT 9999 SCT035 BKN047 17/11 Q1015
  • 191020Z 24009KT 9999 FEW014 17/11 Q1015

TAF TAF ESGG
Valid from the 19 at 12:00 until the 20 at 12:00 UTC


191130Z 1912/2012 24009KT 9999 BKN035
TEMPO 1914/1924 RA BKN007
TEMPO 2000/2003 SHRA BKN010 BKN030CB
PROB40 2003/2006 0600 FG VV002
PROB40 2006/2010 BKN009
No reported NOTAMs for that airfield.



MET'MAP, your aeronautical weather chart ! - Copyright ORBIFLY December 2007 - Disclaimer

ORBIFLY MET'MAP TEAM :

Programming & Development : Alexandra Zaïnal
Concept & Development : Baudouin d'Aumeries
Co-Development & Prog : Marc-Olivier Méhu
Technical & hardware support : Manuel Goepfert

Contact : metmap@orbifly.com




SOURCES & CREDITS :

   NOAA